McKean, Pennsylvania
Current Conditions -  °F | °C
As of 10:51 AM on Saturday 25 Oct 2014 (Local Time) from KERI Reporting Station
Overcast Overcast  
Wind Chill: 59°   Ceiling: 7000
Heat Index: 59°   Visibility: 10mi
Dew Point: 47°   Wind: 14mph
Humidity: 64%   Direction: 200°SSW
Pressure: 29.8"   Gusts: NA
Location:  42°N, 80.14°W
Report Text: KERI 251451Z 20012KT 10SM BKN070 BKN080 OVC100 15/08 A2980 RMK AO2 SLP093 T01500083 58023
Loading
Personal Weather Stations






























Interactive Weather Map
Tropical Storm Tracking
New forecast layout! Learn more

10-Day Weather Forecast

Advertisements
Track Severe Weather on mobile